sensor_id;sensor_type;location;lat;lon;timestamp;pressure;altitude;pressure_sealevel;temperature;humidity
80726;BME280;70113;59.928;10.878;2023-06-01T00:02:03;99479.03;;;13.31;40.21
80726;BME280;70113;59.928;10.878;2023-06-01T00:04:29;99461.28;;;13.31;40.18
80726;BME280;70113;59.928;10.878;2023-06-01T00:06:55;99468.16;;;13.13;39.56
80726;BME280;70113;59.928;10.878;2023-06-01T00:09:21;99472.53;;;13.14;39.96
80726;BME280;70113;59.928;10.878;2023-06-01T00:11:47;99471.91;;;13.31;40.13
80726;BME280;70113;59.928;10.878;2023-06-01T00:14:13;99447.78;;;13.14;39.84
80726;BME280;70113;59.928;10.878;2023-06-01T00:16:39;99470.88;;;13.12;39.72
80726;BME280;70113;59.928;10.878;2023-06-01T00:19:04;99459.84;;;12.99;40.35
80726;BME280;70113;59.928;10.878;2023-06-01T00:21:30;99473.06;;;13.00;40.45
80726;BME280;70113;59.928;10.878;2023-06-01T00:23:58;99474.13;;;12.71;40.75
80726;BME280;70113;59.928;10.878;2023-06-01T00:26:24;99467.13;;;12.94;40.76
80726;BME280;70113;59.928;10.878;2023-06-01T00:28:50;99479.63;;;12.90;41.23
80726;BME280;70113;59.928;10.878;2023-06-01T00:31:16;99474.38;;;12.89;41.18
80726;BME280;70113;59.928;10.878;2023-06-01T00:33:42;99468.69;;;12.76;41.42
80726;BME280;70113;59.928;10.878;2023-06-01T00:36:09;99483.13;;;12.91;41.22
80726;BME280;70113;59.928;10.878;2023-06-01T00:38:34;99461.41;;;12.81;40.95
80726;BME280;70113;59.928;10.878;2023-06-01T00:41:00;99473.66;;;12.85;40.83
80726;BME280;70113;59.928;10.878;2023-06-01T00:43:26;99467.56;;;12.82;41.18
80726;BME280;70113;59.928;10.878;2023-06-01T00:45:52;99478.16;;;12.82;41.66
80726;BME280;70113;59.928;10.878;2023-06-01T00:48:18;99467.78;;;12.75;41.26
80726;BME280;70113;59.928;10.878;2023-06-01T00:50:45;99464.56;;;12.67;41.60
80726;BME280;70113;59.928;10.878;2023-06-01T00:53:19;99478.16;;;12.82;41.21
80726;BME280;70113;59.928;10.878;2023-06-01T00:55:46;99475.06;;;12.70;40.72
80726;BME280;70113;59.928;10.878;2023-06-01T00:58:12;99474.97;;;12.73;41.34
80726;BME280;70113;59.928;10.878;2023-06-01T01:00:39;99476.25;;;12.62;40.96
80726;BME280;70113;59.928;10.878;2023-06-01T01:03:05;99471.81;;;12.62;41.58
80726;BME280;70113;59.928;10.878;2023-06-01T01:05:37;99485.91;;;12.64;41.99
80726;BME280;70113;59.928;10.878;2023-06-01T01:08:37;99483.41;;;12.60;41.73
80726;BME280;70113;59.928;10.878;2023-06-01T01:11:18;99481.56;;;12.62;41.92
80726;BME280;70113;59.928;10.878;2023-06-01T01:13:57;99480.22;;;12.50;41.49
80726;BME280;70113;59.928;10.878;2023-06-01T01:16:33;99472.03;;;12.56;41.88
80726;BME280;70113;59.928;10.878;2023-06-01T01:21:36;99473.03;;;12.53;41.77
80726;BME280;70113;59.928;10.878;2023-06-01T01:29:16;99476.09;;;12.41;42.05
80726;BME280;70113;59.928;10.878;2023-06-01T01:31:45;99479.19;;;12.29;42.26
80726;BME280;70113;59.928;10.878;2023-06-01T01:34:10;99483.13;;;12.42;41.93
80726;BME280;70113;59.928;10.878;2023-06-01T01:36:37;99486.53;;;12.46;41.92
80726;BME280;70113;59.928;10.878;2023-06-01T01:39:03;99463.59;;;12.20;42.26
80726;BME280;70113;59.928;10.878;2023-06-01T01:41:29;99478.66;;;12.44;42.15
80726;BME280;70113;59.928;10.878;2023-06-01T01:43:56;99492.06;;;12.40;42.52
80726;BME280;70113;59.928;10.878;2023-06-01T01:46:29;99478.41;;;12.25;42.17
80726;BME280;70113;59.928;10.878;2023-06-01T01:49:33;99490.44;;;12.36;42.40
80726;BME280;70113;59.928;10.878;2023-06-01T01:54:37;99474.88;;;12.00;42.66
80726;BME280;70113;59.928;10.878;2023-06-01T01:57:04;99481.94;;;12.26;42.71
80726;BME280;70113;59.928;10.878;2023-06-01T01:59:30;99468.53;;;12.04;42.78
80726;BME280;70113;59.928;10.878;2023-06-01T02:01:56;99465.78;;;12.07;42.45
80726;BME280;70113;59.928;10.878;2023-06-01T02:04:22;99468.75;;;11.98;42.63
80726;BME280;70113;59.928;10.878;2023-06-01T02:06:47;99484.34;;;12.07;42.70
80726;BME280;70113;59.928;10.878;2023-06-01T02:09:13;99487.09;;;12.04;43.23
80726;BME280;70113;59.928;10.878;2023-06-01T02:11:39;99476.03;;;11.91;43.12
80726;BME280;70113;59.928;10.878;2023-06-01T02:14:04;99480.59;;;11.88;43.55
80726;BME280;70113;59.928;10.878;2023-06-01T02:16:30;99472.84;;;11.80;43.65
80726;BME280;70113;59.928;10.878;2023-06-01T02:18:56;99479.75;;;11.85;43.52
80726;BME280;70113;59.928;10.878;2023-06-01T02:21:24;99496.66;;;11.81;43.89
80726;BME280;70113;59.928;10.878;2023-06-01T02:23:50;99494.19;;;11.75;44.12
80726;BME280;70113;59.928;10.878;2023-06-01T02:26:16;99496.94;;;11.72;44.32
80726;BME280;70113;59.928;10.878;2023-06-01T02:28:41;99497.63;;;11.77;44.17
80726;BME280;70113;59.928;10.878;2023-06-01T02:31:09;99503.03;;;11.74;44.41
80726;BME280;70113;59.928;10.878;2023-06-01T02:33:35;99496.53;;;11.84;43.41
80726;BME280;70113;59.928;10.878;2023-06-01T02:36:01;99495.06;;;11.76;43.46
80726;BME280;70113;59.928;10.878;2023-06-01T02:38:27;99490.34;;;11.57;43.75
80726;BME280;70113;59.928;10.878;2023-06-01T02:40:53;99495.72;;;11.82;43.51
80726;BME280;70113;59.928;10.878;2023-06-01T02:43:19;99498.34;;;11.84;42.85
80726;BME280;70113;59.928;10.878;2023-06-01T02:45:45;99494.09;;;11.78;43.89
80726;BME280;70113;59.928;10.878;2023-06-01T02:48:10;99487.75;;;11.56;43.64
80726;BME280;70113;59.928;10.878;2023-06-01T02:50:36;99499.06;;;11.61;43.95
80726;BME280;70113;59.928;10.878;2023-06-01T02:53:02;99507.19;;;11.55;43.85
80726;BME280;70113;59.928;10.878;2023-06-01T02:55:28;99503.78;;;11.51;44.18
80726;BME280;70113;59.928;10.878;2023-06-01T02:57:54;99503.09;;;11.45;43.97
80726;BME280;70113;59.928;10.878;2023-06-01T03:00:20;99506.75;;;11.40;44.35
80726;BME280;70113;59.928;10.878;2023-06-01T03:02:48;99502.56;;;11.33;44.62
80726;BME280;70113;59.928;10.878;2023-06-01T03:05:14;99512.91;;;11.41;44.79
80726;BME280;70113;59.928;10.878;2023-06-01T03:07:44;99523.66;;;11.36;45.00
80726;BME280;70113;59.928;10.878;2023-06-01T03:10:10;99496.00;;;11.17;44.56
80726;BME280;70113;59.928;10.878;2023-06-01T03:12:36;99520.34;;;11.28;45.35
80726;BME280;70113;59.928;10.878;2023-06-01T03:15:02;99527.19;;;11.35;45.32
80726;BME280;70113;59.928;10.878;2023-06-01T03:17:29;99533.50;;;11.31;45.41
80726;BME280;70113;59.928;10.878;2023-06-01T03:19:55;99524.78;;;11.28;45.60
80726;BME280;70113;59.928;10.878;2023-06-01T03:22:21;99517.31;;;11.12;45.71
80726;BME280;70113;59.928;10.878;2023-06-01T03:24:47;99541.06;;;11.14;45.93
80726;BME280;70113;59.928;10.878;2023-06-01T03:27:18;99540.03;;;11.18;46.12
80726;BME280;70113;59.928;10.878;2023-06-01T03:29:47;99532.16;;;11.16;45.80
80726;BME280;70113;59.928;10.878;2023-06-01T03:32:13;99541.88;;;11.16;46.46
80726;BME280;70113;59.928;10.878;2023-06-01T03:34:39;99550.22;;;11.32;46.16
80726;BME280;70113;59.928;10.878;2023-06-01T03:37:06;99544.28;;;11.24;46.29
80726;BME280;70113;59.928;10.878;2023-06-01T03:39:33;99546.53;;;11.37;45.88
80726;BME280;70113;59.928;10.878;2023-06-01T03:42:00;99545.97;;;11.28;45.81
80726;BME280;70113;59.928;10.878;2023-06-01T03:44:26;99536.31;;;11.25;45.99
80726;BME280;70113;59.928;10.878;2023-06-01T03:46:53;99532.19;;;11.15;46.50
80726;BME280;70113;59.928;10.878;2023-06-01T03:49:19;99548.16;;;11.12;46.91
80726;BME280;70113;59.928;10.878;2023-06-01T03:51:44;99538.13;;;11.23;46.28
80726;BME280;70113;59.928;10.878;2023-06-01T03:54:10;99547.72;;;11.27;46.14
80726;BME280;70113;59.928;10.878;2023-06-01T03:56:36;99545.25;;;11.21;45.96
80726;BME280;70113;59.928;10.878;2023-06-01T03:59:02;99552.03;;;11.31;46.24
80726;BME280;70113;59.928;10.878;2023-06-01T04:01:28;99545.25;;;11.21;46.53
80726;BME280;70113;59.928;10.878;2023-06-01T04:03:55;99554.75;;;11.28;46.45
80726;BME280;70113;59.928;10.878;2023-06-01T04:06:22;99552.13;;;11.27;46.63
80726;BME280;70113;59.928;10.878;2023-06-01T04:08:50;99553.25;;;11.20;46.84
80726;BME280;70113;59.928;10.878;2023-06-01T04:11:21;99538.97;;;11.25;46.46
80726;BME280;70113;59.928;10.878;2023-06-01T04:13:50;99557.31;;;11.31;46.75
80726;BME280;70113;59.928;10.878;2023-06-01T04:16:16;99555.13;;;11.16;47.37
80726;BME280;70113;59.928;10.878;2023-06-01T04:18:42;99553.38;;;11.15;47.47
80726;BME280;70113;59.928;10.878;2023-06-01T04:21:07;99546.63;;;11.03;47.96
80726;BME280;70113;59.928;10.878;2023-06-01T04:23:35;99531.50;;;11.10;47.48
80726;BME280;70113;59.928;10.878;2023-06-01T04:26:02;99534.25;;;11.05;48.03
80726;BME280;70113;59.928;10.878;2023-06-01T04:28:31;99538.53;;;11.09;48.24
80726;BME280;70113;59.928;10.878;2023-06-01T04:30:57;99526.47;;;11.01;48.48
80726;BME280;70113;59.928;10.878;2023-06-01T04:33:24;99539.16;;;11.19;47.62
80726;BME280;70113;59.928;10.878;2023-06-01T04:35:51;99548.25;;;11.09;48.19
80726;BME280;70113;59.928;10.878;2023-06-01T04:38:20;99548.81;;;11.20;48.03
80726;BME280;70113;59.928;10.878;2023-06-01T04:40:46;99545.22;;;11.23;47.95
80726;BME280;70113;59.928;10.878;2023-06-01T04:43:13;99559.81;;;11.36;47.81
80726;BME280;70113;59.928;10.878;2023-06-01T04:45:45;99553.72;;;11.34;47.93
80726;BME280;70113;59.928;10.878;2023-06-01T04:48:11;99553.34;;;11.46;47.00
80726;BME280;70113;59.928;10.878;2023-06-01T04:50:37;99562.28;;;11.42;47.46
80726;BME280;70113;59.928;10.878;2023-06-01T04:53:04;99555.16;;;11.44;47.25
80726;BME280;70113;59.928;10.878;2023-06-01T04:55:30;99542.78;;;11.45;46.61
80726;BME280;70113;59.928;10.878;2023-06-01T04:57:57;99559.19;;;11.57;46.70
80726;BME280;70113;59.928;10.878;2023-06-01T05:00:23;99568.94;;;11.55;46.98
80726;BME280;70113;59.928;10.878;2023-06-01T05:02:49;99537.50;;;11.45;46.81
80726;BME280;70113;59.928;10.878;2023-06-01T05:05:16;99564.28;;;11.63;46.88
80726;BME280;70113;59.928;10.878;2023-06-01T05:07:43;99568.63;;;11.66;46.52
80726;BME280;70113;59.928;10.878;2023-06-01T05:10:10;99567.63;;;11.70;46.86
80726;BME280;70113;59.928;10.878;2023-06-01T05:12:36;99567.72;;;11.67;47.17
80726;BME280;70113;59.928;10.878;2023-06-01T05:15:05;99559.69;;;11.69;47.18
80726;BME280;70113;59.928;10.878;2023-06-01T05:17:31;99567.53;;;11.73;47.10
80726;BME280;70113;59.928;10.878;2023-06-01T05:19:57;99552.97;;;11.88;46.12
80726;BME280;70113;59.928;10.878;2023-06-01T05:22:23;99545.22;;;11.80;45.16
80726;BME280;70113;59.928;10.878;2023-06-01T05:24:49;99564.50;;;11.85;45.91
80726;BME280;70113;59.928;10.878;2023-06-01T05:27:15;99558.28;;;11.86;44.46
80726;BME280;70113;59.928;10.878;2023-06-01T05:29:41;99566.88;;;11.95;44.94
80726;BME280;70113;59.928;10.878;2023-06-01T05:32:08;99566.94;;;11.93;45.19
80726;BME280;70113;59.928;10.878;2023-06-01T05:34:34;99563.06;;;12.03;45.39
80726;BME280;70113;59.928;10.878;2023-06-01T05:37:00;99557.56;;;12.09;45.10
80726;BME280;70113;59.928;10.878;2023-06-01T05:39:26;99561.28;;;12.04;44.60
80726;BME280;70113;59.928;10.878;2023-06-01T05:41:57;99561.34;;;12.02;45.98
80726;BME280;70113;59.928;10.878;2023-06-01T05:44:23;99562.00;;;12.09;44.52
80726;BME280;70113;59.928;10.878;2023-06-01T05:46:50;99574.13;;;12.16;45.00
80726;BME280;70113;59.928;10.878;2023-06-01T05:49:17;99571.53;;;12.15;44.43
80726;BME280;70113;59.928;10.878;2023-06-01T05:51:42;99556.66;;;12.11;44.27
80726;BME280;70113;59.928;10.878;2023-06-01T05:54:09;99571.88;;;12.04;43.07
80726;BME280;70113;59.928;10.878;2023-06-01T05:56:36;99569.31;;;12.01;44.17
80726;BME280;70113;59.928;10.878;2023-06-01T05:59:05;99555.28;;;11.99;44.19
80726;BME280;70113;59.928;10.878;2023-06-01T06:01:31;99565.69;;;12.05;43.95
80726;BME280;70113;59.928;10.878;2023-06-01T06:03:58;99568.03;;;11.86;44.17
80726;BME280;70113;59.928;10.878;2023-06-01T06:06:25;99571.44;;;11.90;44.09
80726;BME280;70113;59.928;10.878;2023-06-01T06:08:52;99570.47;;;11.92;44.46
80726;BME280;70113;59.928;10.878;2023-06-01T06:11:18;99569.63;;;12.20;44.96
80726;BME280;70113;59.928;10.878;2023-06-01T06:13:44;99559.69;;;11.98;42.91
80726;BME280;70113;59.928;10.878;2023-06-01T06:16:10;99573.44;;;12.11;42.96
80726;BME280;70113;59.928;10.878;2023-06-01T06:18:35;99566.13;;;11.90;43.82
80726;BME280;70113;59.928;10.878;2023-06-01T06:21:01;99589.25;;;12.13;43.89
80726;BME280;70113;59.928;10.878;2023-06-01T06:23:27;99584.72;;;12.16;44.35
80726;BME280;70113;59.928;10.878;2023-06-01T06:25:52;99584.72;;;12.16;43.97
80726;BME280;70113;59.928;10.878;2023-06-01T06:28:18;99576.19;;;12.35;43.48
80726;BME280;70113;59.928;10.878;2023-06-01T06:30:44;99584.50;;;12.24;43.25
80726;BME280;70113;59.928;10.878;2023-06-01T06:33:11;99602.81;;;12.31;43.54
80726;BME280;70113;59.928;10.878;2023-06-01T06:35:39;99593.00;;;12.34;43.17
80726;BME280;70113;59.928;10.878;2023-06-01T06:38:06;99595.13;;;12.49;43.16
80726;BME280;70113;59.928;10.878;2023-06-01T06:40:32;99596.16;;;12.45;43.18
80726;BME280;70113;59.928;10.878;2023-06-01T06:42:58;99598.00;;;12.43;42.49
80726;BME280;70113;59.928;10.878;2023-06-01T06:45:24;99578.63;;;12.41;43.44
80726;BME280;70113;59.928;10.878;2023-06-01T06:47:49;99595.91;;;12.52;42.52
80726;BME280;70113;59.928;10.878;2023-06-01T06:50:15;99601.59;;;12.40;43.56
80726;BME280;70113;59.928;10.878;2023-06-01T06:52:41;99597.06;;;12.17;43.11
80726;BME280;70113;59.928;10.878;2023-06-01T06:55:07;99596.91;;;12.22;44.55
80726;BME280;70113;59.928;10.878;2023-06-01T06:57:33;99586.41;;;12.19;44.19
80726;BME280;70113;59.928;10.878;2023-06-01T07:00:01;99619.69;;;12.27;42.65
80726;BME280;70113;59.928;10.878;2023-06-01T07:02:29;99607.31;;;12.28;43.53
80726;BME280;70113;59.928;10.878;2023-06-01T07:04:55;99622.88;;;12.39;46.54
80726;BME280;70113;59.928;10.878;2023-06-01T07:07:21;99626.28;;;12.42;43.73
80726;BME280;70113;59.928;10.878;2023-06-01T07:09:47;99626.94;;;12.49;43.78
80726;BME280;70113;59.928;10.878;2023-06-01T07:12:12;99627.03;;;12.46;43.58
80726;BME280;70113;59.928;10.878;2023-06-01T07:14:38;99628.03;;;12.43;43.59
80726;BME280;70113;59.928;10.878;2023-06-01T07:17:05;99640.41;;;12.43;43.74
80726;BME280;70113;59.928;10.878;2023-06-01T07:19:31;99636.06;;;12.40;43.77
80726;BME280;70113;59.928;10.878;2023-06-01T07:22:01;99621.19;;;12.36;45.08
80726;BME280;70113;59.928;10.878;2023-06-01T07:24:27;99651.69;;;12.49;43.57
80726;BME280;70113;59.928;10.878;2023-06-01T07:26:53;99638.88;;;12.36;43.09
80726;BME280;70113;59.928;10.878;2023-06-01T07:29:27;99637.66;;;12.46;45.05
80726;BME280;70113;59.928;10.878;2023-06-01T07:31:53;99640.69;;;12.62;44.78
80726;BME280;70113;59.928;10.878;2023-06-01T07:34:19;99643.16;;;12.66;43.18
80726;BME280;70113;59.928;10.878;2023-06-01T07:36:48;99648.06;;;12.78;44.32
80726;BME280;70113;59.928;10.878;2023-06-01T07:39:14;99628.78;;;12.73;43.73
80726;BME280;70113;59.928;10.878;2023-06-01T07:41:40;99655.31;;;12.73;45.71
80726;BME280;70113;59.928;10.878;2023-06-01T07:44:06;99658.16;;;12.94;43.89
80726;BME280;70113;59.928;10.878;2023-06-01T07:46:33;99639.41;;;12.98;43.46
80726;BME280;70113;59.928;10.878;2023-06-01T07:48:58;99644.97;;;12.91;41.52
80726;BME280;70113;59.928;10.878;2023-06-01T07:51:24;99634.66;;;12.83;42.42
80726;BME280;70113;59.928;10.878;2023-06-01T07:53:50;99638.97;;;12.86;42.00
80726;BME280;70113;59.928;10.878;2023-06-01T07:56:16;99645.41;;;12.78;41.00
80726;BME280;70113;59.928;10.878;2023-06-01T07:58:42;99644.28;;;12.86;41.39
80726;BME280;70113;59.928;10.878;2023-06-01T08:01:09;99646.94;;;12.86;41.08
80726;BME280;70113;59.928;10.878;2023-06-01T08:03:36;99659.06;;;12.66;40.34
80726;BME280;70113;59.928;10.878;2023-06-01T08:06:02;99658.06;;;12.70;40.89
80726;BME280;70113;59.928;10.878;2023-06-01T08:08:31;99651.88;;;12.70;41.06
80726;BME280;70113;59.928;10.878;2023-06-01T08:10:57;99635.06;;;12.71;40.59
80726;BME280;70113;59.928;10.878;2023-06-01T08:13:23;99641.03;;;12.77;41.93
80726;BME280;70113;59.928;10.878;2023-06-01T08:15:51;99646.41;;;12.76;40.83
80726;BME280;70113;59.928;10.878;2023-06-01T08:18:19;99654.25;;;12.79;40.46
80726;BME280;70113;59.928;10.878;2023-06-01T08:20:47;99655.25;;;12.75;41.84
80726;BME280;70113;59.928;10.878;2023-06-01T08:23:14;99653.66;;;12.69;41.26
80726;BME280;70113;59.928;10.878;2023-06-01T08:25:45;99661.38;;;12.77;40.82
80726;BME280;70113;59.928;10.878;2023-06-01T08:28:11;99644.13;;;12.64;41.12
80726;BME280;70113;59.928;10.878;2023-06-01T08:30:36;99644.03;;;12.67;43.54
80726;BME280;70113;59.928;10.878;2023-06-01T08:33:02;99641.56;;;12.87;42.48
80726;BME280;70113;59.928;10.878;2023-06-01T08:35:28;99642.41;;;12.89;41.25
80726;BME280;70113;59.928;10.878;2023-06-01T08:37:56;99643.44;;;12.85;41.08
80726;BME280;70113;59.928;10.878;2023-06-01T08:40:21;99642.13;;;12.97;40.99
80726;BME280;70113;59.928;10.878;2023-06-01T08:43:26;99632.03;;;12.82;41.41
80726;BME280;70113;59.928;10.878;2023-06-01T08:45:55;99642.94;;;12.99;42.88
80726;BME280;70113;59.928;10.878;2023-06-01T08:48:23;99638.94;;;13.12;43.20
80726;BME280;70113;59.928;10.878;2023-06-01T08:50:50;99643.22;;;13.16;41.70
80726;BME280;70113;59.928;10.878;2023-06-01T08:53:18;99649.06;;;13.01;39.80
80726;BME280;70113;59.928;10.878;2023-06-01T08:55:44;99626.50;;;12.63;40.60
80726;BME280;70113;59.928;10.878;2023-06-01T08:58:12;99655.44;;;12.70;43.00
80726;BME280;70113;59.928;10.878;2023-06-01T09:00:38;99656.22;;;12.72;40.60
80726;BME280;70113;59.928;10.878;2023-06-01T09:03:04;99647.16;;;12.80;39.36
80726;BME280;70113;59.928;10.878;2023-06-01T09:05:30;99646.88;;;12.87;39.76
80726;BME280;70113;59.928;10.878;2023-06-01T09:07:55;99650.91;;;12.99;40.79
80726;BME280;70113;59.928;10.878;2023-06-01T09:10:24;99637.84;;;12.93;40.31
80726;BME280;70113;59.928;10.878;2023-06-01T09:12:54;99638.72;;;12.67;40.08
80726;BME280;70113;59.928;10.878;2023-06-01T09:15:21;99652.38;;;12.56;39.85
80726;BME280;70113;59.928;10.878;2023-06-01T09:17:51;99656.22;;;12.72;40.45
80726;BME280;70113;59.928;10.878;2023-06-01T09:20:25;99662.25;;;12.51;40.51
80726;BME280;70113;59.928;10.878;2023-06-01T09:22:52;99633.72;;;12.58;40.53
80726;BME280;70113;59.928;10.878;2023-06-01T09:25:32;99653.03;;;12.63;41.42
80726;BME280;70113;59.928;10.878;2023-06-01T09:28:00;99670.84;;;12.58;41.52
80726;BME280;70113;59.928;10.878;2023-06-01T09:30:41;99658.47;;;12.58;41.68
80726;BME280;70113;59.928;10.878;2023-06-01T09:38:08;99646.75;;;12.65;40.97
80726;BME280;70113;59.928;10.878;2023-06-01T09:40:34;99669.38;;;12.75;41.43
80726;BME280;70113;59.928;10.878;2023-06-01T09:43:00;99666.13;;;12.94;41.80
80726;BME280;70113;59.928;10.878;2023-06-01T09:45:29;99664.00;;;13.04;41.13
80726;BME280;70113;59.928;10.878;2023-06-01T09:48:15;99667.28;;;13.12;40.49
80726;BME280;70113;59.928;10.878;2023-06-01T09:50:42;99670.34;;;12.99;41.59
80726;BME280;70113;59.928;10.878;2023-06-01T09:53:09;99666.13;;;13.19;41.68
80726;BME280;70113;59.928;10.878;2023-06-01T09:55:34;99670.91;;;13.09;39.31
80726;BME280;70113;59.928;10.878;2023-06-01T09:58:17;99671.25;;;12.98;40.00
80726;BME280;70113;59.928;10.878;2023-06-01T10:00:49;99672.72;;;13.07;40.61
80726;BME280;70113;59.928;10.878;2023-06-01T10:03:18;99674.41;;;13.10;41.35
80726;BME280;70113;59.928;10.878;2023-06-01T10:05:45;99673.78;;;13.03;40.51
80726;BME280;70113;59.928;10.878;2023-06-01T10:08:16;99675.88;;;13.18;39.66
80726;BME280;70113;59.928;10.878;2023-06-01T10:10:43;99663.28;;;13.23;40.20
80726;BME280;70113;59.928;10.878;2023-06-01T10:13:11;99660.28;;;13.09;38.94
80726;BME280;70113;59.928;10.878;2023-06-01T10:15:36;99644.06;;;12.92;39.19
80726;BME280;70113;59.928;10.878;2023-06-01T10:18:06;99659.38;;;13.35;39.41
80726;BME280;70113;59.928;10.878;2023-06-01T10:20:37;99665.06;;;13.25;39.04
80726;BME280;70113;59.928;10.878;2023-06-01T10:23:03;99671.47;;;13.17;38.94
80726;BME280;70113;59.928;10.878;2023-06-01T10:25:37;99673.22;;;13.18;38.03
80726;BME280;70113;59.928;10.878;2023-06-01T10:28:05;99668.03;;;13.40;39.92
80726;BME280;70113;59.928;10.878;2023-06-01T10:30:33;99672.28;;;13.19;37.97
80726;BME280;70113;59.928;10.878;2023-06-01T10:33:00;99674.22;;;13.41;40.13
80726;BME280;70113;59.928;10.878;2023-06-01T10:40:39;99671.53;;;13.42;36.79
80726;BME280;70113;59.928;10.878;2023-06-01T10:43:05;99671.41;;;13.45;37.46
80726;BME280;70113;59.928;10.878;2023-06-01T10:45:39;99678.66;;;13.65;36.79
80726;BME280;70113;59.928;10.878;2023-06-01T10:48:10;99675.91;;;13.43;36.23
80726;BME280;70113;59.928;10.878;2023-06-01T10:50:41;99677.94;;;13.60;38.43
80726;BME280;70113;59.928;10.878;2023-06-01T10:53:24;99682.09;;;13.67;38.62
80726;BME280;70113;59.928;10.878;2023-06-01T10:56:18;99682.28;;;13.63;38.28
80726;BME280;70113;59.928;10.878;2023-06-01T10:58:44;99678.06;;;13.81;38.24
80726;BME280;70113;59.928;10.878;2023-06-01T11:01:18;99681.09;;;13.72;36.88
80726;BME280;70113;59.928;10.878;2023-06-01T11:03:45;99695.00;;;13.30;36.36
80726;BME280;70113;59.928;10.878;2023-06-01T11:06:32;99675.28;;;13.35;37.31
80726;BME280;70113;59.928;10.878;2023-06-01T11:09:00;99685.91;;;13.60;38.02
80726;BME280;70113;59.928;10.878;2023-06-01T11:14:20;99681.19;;;13.68;37.60
80726;BME280;70113;59.928;10.878;2023-06-01T11:16:46;99670.63;;;13.90;37.29
80726;BME280;70113;59.928;10.878;2023-06-01T11:19:23;99660.72;;;13.94;37.20
80726;BME280;70113;59.928;10.878;2023-06-01T11:21:59;99671.56;;;14.11;37.08
80726;BME280;70113;59.928;10.878;2023-06-01T11:24:35;99668.22;;;14.06;35.31
80726;BME280;70113;59.928;10.878;2023-06-01T11:27:06;99655.84;;;13.83;35.45
80726;BME280;70113;59.928;10.878;2023-06-01T11:29:33;99672.91;;;14.00;35.83
80726;BME280;70113;59.928;10.878;2023-06-01T11:32:04;99658.13;;;14.16;35.28
80726;BME280;70113;59.928;10.878;2023-06-01T11:34:35;99658.03;;;14.18;35.22
80726;BME280;70113;59.928;10.878;2023-06-01T11:37:05;99656.94;;;14.23;35.64
80726;BME280;70113;59.928;10.878;2023-06-01T11:39:31;99662.38;;;14.42;34.36
80726;BME280;70113;59.928;10.878;2023-06-01T11:42:07;99664.03;;;14.45;36.21
80726;BME280;70113;59.928;10.878;2023-06-01T11:44:36;99674.38;;;14.30;34.50
80726;BME280;70113;59.928;10.878;2023-06-01T11:47:02;99672.84;;;14.25;35.79
80726;BME280;70113;59.928;10.878;2023-06-01T11:49:29;99661.50;;;14.20;35.09
80726;BME280;70113;59.928;10.878;2023-06-01T11:51:55;99661.44;;;14.21;35.62
80726;BME280;70113;59.928;10.878;2023-06-01T11:54:27;99659.56;;;14.25;34.84
80726;BME280;70113;59.928;10.878;2023-06-01T11:56:55;99649.31;;;14.36;33.77
80726;BME280;70113;59.928;10.878;2023-06-01T11:59:22;99667.06;;;14.35;33.71
80726;BME280;70113;59.928;10.878;2023-06-01T12:01:49;99659.09;;;14.35;33.13
80726;BME280;70113;59.928;10.878;2023-06-01T12:04:21;99647.47;;;14.38;32.99
80726;BME280;70113;59.928;10.878;2023-06-01T12:06:47;99644.22;;;14.53;33.04
80726;BME280;70113;59.928;10.878;2023-06-01T12:09:15;99657.13;;;14.85;33.44
80726;BME280;70113;59.928;10.878;2023-06-01T12:11:43;99650.72;;;14.89;32.67
80726;BME280;70113;59.928;10.878;2023-06-01T12:14:11;99640.66;;;14.75;31.51
80726;BME280;70113;59.928;10.878;2023-06-01T12:16:59;99645.59;;;14.84;31.89
80726;BME280;70113;59.928;10.878;2023-06-01T12:19:28;99655.25;;;14.87;33.01
80726;BME280;70113;59.928;10.878;2023-06-01T12:21:56;99650.28;;;14.99;31.99
80726;BME280;70113;59.928;10.878;2023-06-01T12:24:32;99666.84;;;15.06;32.04
80726;BME280;70113;59.928;10.878;2023-06-01T12:26:59;99663.34;;;15.26;32.80
80726;BME280;70113;59.928;10.878;2023-06-01T12:29:39;99653.31;;;15.31;31.69
80726;BME280;70113;59.928;10.878;2023-06-01T12:32:07;99648.00;;;15.31;33.13
80726;BME280;70113;59.928;10.878;2023-06-01T12:34:35;99645.13;;;15.36;32.35
80726;BME280;70113;59.928;10.878;2023-06-01T12:37:17;99654.66;;;15.41;31.27
80726;BME280;70113;59.928;10.878;2023-06-01T12:39:51;99655.56;;;15.40;31.28
80726;BME280;70113;59.928;10.878;2023-06-01T12:42:17;99647.81;;;15.55;31.89
80726;BME280;70113;59.928;10.878;2023-06-01T12:44:43;99643.88;;;15.63;30.50
80726;BME280;70113;59.928;10.878;2023-06-01T12:47:11;99654.63;;;15.62;29.76
80726;BME280;70113;59.928;10.878;2023-06-01T12:49:37;99637.16;;;15.55;30.92
80726;BME280;70113;59.928;10.878;2023-06-01T12:52:05;99644.03;;;15.60;30.06
80726;BME280;70113;59.928;10.878;2023-06-01T12:54:31;99639.69;;;15.58;29.86
80726;BME280;70113;59.928;10.878;2023-06-01T12:56:57;99652.44;;;15.71;31.45
80726;BME280;70113;59.928;10.878;2023-06-01T12:59:23;99657.75;;;15.71;29.25
80726;BME280;70113;59.928;10.878;2023-06-01T13:01:49;99639.53;;;15.81;29.75
80726;BME280;70113;59.928;10.878;2023-06-01T13:04:15;99645.59;;;15.85;30.27
80726;BME280;70113;59.928;10.878;2023-06-01T13:06:40;99653.22;;;16.11;29.12
80726;BME280;70113;59.928;10.878;2023-06-01T13:09:07;99638.47;;;16.04;29.04
80726;BME280;70113;59.928;10.878;2023-06-01T13:11:33;99636.22;;;15.95;27.98
80726;BME280;70113;59.928;10.878;2023-06-01T13:13:59;99643.66;;;16.07;28.99
80726;BME280;70113;59.928;10.878;2023-06-01T13:16:24;99645.78;;;16.18;29.18
80726;BME280;70113;59.928;10.878;2023-06-01T13:18:50;99621.94;;;16.15;29.14